sensor_id;sensor_type;location;lat;lon;timestamp;temperature;humidity
3850;DHT22;1940;51.052;13.678;2023-11-21T00:00:44;9.60;89.20
3850;DHT22;1940;51.052;13.678;2023-11-21T00:03:11;9.60;89.20
3850;DHT22;1940;51.052;13.678;2023-11-21T00:05:40;9.60;89.20
3850;DHT22;1940;51.052;13.678;2023-11-21T00:08:07;9.60;89.20
3850;DHT22;1940;51.052;13.678;2023-11-21T00:10:33;9.60;89.20
3850;DHT22;1940;51.052;13.678;2023-11-21T00:12:59;9.60;89.30
3850;DHT22;1940;51.052;13.678;2023-11-21T00:15:25;9.60;89.40
3850;DHT22;1940;51.052;13.678;2023-11-21T00:17:51;9.60;89.50
3850;DHT22;1940;51.052;13.678;2023-11-21T00:20:17;9.60;89.50
3850;DHT22;1940;51.052;13.678;2023-11-21T00:22:42;9.60;89.50
3850;DHT22;1940;51.052;13.678;2023-11-21T00:25:08;9.60;89.70
3850;DHT22;1940;51.052;13.678;2023-11-21T00:27:37;9.50;89.90
3850;DHT22;1940;51.052;13.678;2023-11-21T00:30:03;9.50;90.20
3850;DHT22;1940;51.052;13.678;2023-11-21T00:32:31;9.50;90.20
3850;DHT22;1940;51.052;13.678;2023-11-21T00:34:56;9.50;90.40
3850;DHT22;1940;51.052;13.678;2023-11-21T00:37:21;9.50;90.00
3850;DHT22;1940;51.052;13.678;2023-11-21T00:39:47;9.50;90.20
3850;DHT22;1940;51.052;13.678;2023-11-21T00:42:12;9.60;90.10
3850;DHT22;1940;51.052;13.678;2023-11-21T00:44:38;9.60;90.00
3850;DHT22;1940;51.052;13.678;2023-11-21T00:47:04;9.60;90.00
3850;DHT22;1940;51.052;13.678;2023-11-21T00:49:30;9.50;90.10
3850;DHT22;1940;51.052;13.678;2023-11-21T00:51:56;9.50;90.20
3850;DHT22;1940;51.052;13.678;2023-11-21T00:54:23;9.50;90.30
3850;DHT22;1940;51.052;13.678;2023-11-21T00:56:49;9.50;90.30
3850;DHT22;1940;51.052;13.678;2023-11-21T00:59:14;9.50;90.40
3850;DHT22;1940;51.052;13.678;2023-11-21T01:01:40;9.50;90.40
3850;DHT22;1940;51.052;13.678;2023-11-21T01:04:05;9.50;90.40
3850;DHT22;1940;51.052;13.678;2023-11-21T01:06:32;9.50;90.40
3850;DHT22;1940;51.052;13.678;2023-11-21T01:08:58;9.50;90.40
3850;DHT22;1940;51.052;13.678;2023-11-21T01:11:23;9.50;90.30
3850;DHT22;1940;51.052;13.678;2023-11-21T01:13:49;9.50;90.40
3850;DHT22;1940;51.052;13.678;2023-11-21T01:16:14;9.60;90.10
3850;DHT22;1940;51.052;13.678;2023-11-21T01:18:40;9.50;90.20
3850;DHT22;1940;51.052;13.678;2023-11-21T01:21:05;9.50;90.00
3850;DHT22;1940;51.052;13.678;2023-11-21T01:23:32;9.60;89.90
3850;DHT22;1940;51.052;13.678;2023-11-21T01:25:58;9.50;90.00
3850;DHT22;1940;51.052;13.678;2023-11-21T01:28:23;9.50;89.90
3850;DHT22;1940;51.052;13.678;2023-11-21T01:30:49;9.60;89.90
3850;DHT22;1940;51.052;13.678;2023-11-21T01:33:15;9.50;89.80
3850;DHT22;1940;51.052;13.678;2023-11-21T01:35:41;9.50;90.00
3850;DHT22;1940;51.052;13.678;2023-11-21T01:38:07;9.50;90.10
3850;DHT22;1940;51.052;13.678;2023-11-21T01:40:33;9.50;90.20
3850;DHT22;1940;51.052;13.678;2023-11-21T01:42:59;9.50;90.20
3850;DHT22;1940;51.052;13.678;2023-11-21T01:45:24;9.50;90.30
3850;DHT22;1940;51.052;13.678;2023-11-21T01:47:50;9.50;90.10
3850;DHT22;1940;51.052;13.678;2023-11-21T01:50:17;9.50;90.20
3850;DHT22;1940;51.052;13.678;2023-11-21T01:52:46;9.50;90.40
3850;DHT22;1940;51.052;13.678;2023-11-21T01:55:15;9.50;90.40
3850;DHT22;1940;51.052;13.678;2023-11-21T01:57:43;9.40;90.40
3850;DHT22;1940;51.052;13.678;2023-11-21T02:00:09;9.40;90.50
3850;DHT22;1940;51.052;13.678;2023-11-21T02:02:47;9.50;90.50
3850;DHT22;1940;51.052;13.678;2023-11-21T02:05:14;9.50;90.30
3850;DHT22;1940;51.052;13.678;2023-11-21T02:07:41;9.40;90.40
3850;DHT22;1940;51.052;13.678;2023-11-21T02:10:08;9.50;90.40
3850;DHT22;1940;51.052;13.678;2023-11-21T02:12:34;9.40;89.90
3850;DHT22;1940;51.052;13.678;2023-11-21T02:15:02;9.40;90.00
3850;DHT22;1940;51.052;13.678;2023-11-21T02:17:30;9.40;90.00
3850;DHT22;1940;51.052;13.678;2023-11-21T02:19:58;9.30;90.00
3850;DHT22;1940;51.052;13.678;2023-11-21T02:22:26;9.30;89.90
3850;DHT22;1940;51.052;13.678;2023-11-21T02:24:52;9.30;89.90
3850;DHT22;1940;51.052;13.678;2023-11-21T02:27:18;9.30;90.00
3850;DHT22;1940;51.052;13.678;2023-11-21T02:29:47;9.30;89.90
3850;DHT22;1940;51.052;13.678;2023-11-21T02:32:13;9.30;89.80
3850;DHT22;1940;51.052;13.678;2023-11-21T02:34:38;9.30;89.80
3850;DHT22;1940;51.052;13.678;2023-11-21T02:37:04;9.30;89.90
3850;DHT22;1940;51.052;13.678;2023-11-21T02:39:31;9.30;89.70
3850;DHT22;1940;51.052;13.678;2023-11-21T02:45:03;9.30;89.70
3850;DHT22;1940;51.052;13.678;2023-11-21T02:47:30;9.20;89.50
3850;DHT22;1940;51.052;13.678;2023-11-21T02:49:56;9.20;89.70
3850;DHT22;1940;51.052;13.678;2023-11-21T02:52:21;9.10;89.90
3850;DHT22;1940;51.052;13.678;2023-11-21T02:54:47;9.00;90.20
3850;DHT22;1940;51.052;13.678;2023-11-21T02:57:12;8.90;90.20
3850;DHT22;1940;51.052;13.678;2023-11-21T02:59:38;8.90;90.40
3850;DHT22;1940;51.052;13.678;2023-11-21T03:02:04;8.80;90.70
3850;DHT22;1940;51.052;13.678;2023-11-21T03:04:29;8.80;90.70
3850;DHT22;1940;51.052;13.678;2023-11-21T03:06:57;8.80;90.80
3850;DHT22;1940;51.052;13.678;2023-11-21T03:09:23;8.80;90.80
3850;DHT22;1940;51.052;13.678;2023-11-21T03:11:49;8.70;90.90
3850;DHT22;1940;51.052;13.678;2023-11-21T03:14:14;8.70;91.00
3850;DHT22;1940;51.052;13.678;2023-11-21T03:16:40;8.70;91.00
3850;DHT22;1940;51.052;13.678;2023-11-21T03:19:06;8.70;91.10
3850;DHT22;1940;51.052;13.678;2023-11-21T03:21:33;8.70;91.10
3850;DHT22;1940;51.052;13.678;2023-11-21T03:23:59;8.70;91.20
3850;DHT22;1940;51.052;13.678;2023-11-21T03:26:25;8.70;91.00
3850;DHT22;1940;51.052;13.678;2023-11-21T03:28:51;8.70;91.00
3850;DHT22;1940;51.052;13.678;2023-11-21T03:31:18;8.70;91.20
3850;DHT22;1940;51.052;13.678;2023-11-21T03:33:45;8.70;91.10
3850;DHT22;1940;51.052;13.678;2023-11-21T03:36:11;8.70;90.90
3850;DHT22;1940;51.052;13.678;2023-11-21T03:38:36;8.70;91.10
3850;DHT22;1940;51.052;13.678;2023-11-21T03:41:03;8.70;91.10
3850;DHT22;1940;51.052;13.678;2023-11-21T03:43:29;8.70;91.00
3850;DHT22;1940;51.052;13.678;2023-11-21T03:45:55;8.60;91.10
3850;DHT22;1940;51.052;13.678;2023-11-21T03:48:21;8.60;91.20
3850;DHT22;1940;51.052;13.678;2023-11-21T03:50:46;8.60;91.10
3850;DHT22;1940;51.052;13.678;2023-11-21T03:53:12;8.60;91.20
3850;DHT22;1940;51.052;13.678;2023-11-21T03:55:38;8.50;91.30
3850;DHT22;1940;51.052;13.678;2023-11-21T03:58:03;8.50;91.30
3850;DHT22;1940;51.052;13.678;2023-11-21T04:00:29;8.60;91.20
3850;DHT22;1940;51.052;13.678;2023-11-21T04:02:54;8.50;91.30
3850;DHT22;1940;51.052;13.678;2023-11-21T04:05:20;8.50;91.40
3850;DHT22;1940;51.052;13.678;2023-11-21T04:07:48;8.60;91.30
3850;DHT22;1940;51.052;13.678;2023-11-21T04:10:14;8.60;91.10
3850;DHT22;1940;51.052;13.678;2023-11-21T04:12:41;8.50;91.30
3850;DHT22;1940;51.052;13.678;2023-11-21T04:15:07;8.60;91.20
3850;DHT22;1940;51.052;13.678;2023-11-21T04:17:34;8.50;91.10
3850;DHT22;1940;51.052;13.678;2023-11-21T04:20:00;8.50;91.20
3850;DHT22;1940;51.052;13.678;2023-11-21T04:22:26;8.60;91.20
3850;DHT22;1940;51.052;13.678;2023-11-21T04:24:51;8.60;91.30
3850;DHT22;1940;51.052;13.678;2023-11-21T04:27:17;8.70;91.10
3850;DHT22;1940;51.052;13.678;2023-11-21T04:29:45;8.60;91.00
3850;DHT22;1940;51.052;13.678;2023-11-21T04:32:11;8.60;91.10
3850;DHT22;1940;51.052;13.678;2023-11-21T04:34:38;8.60;91.10
3850;DHT22;1940;51.052;13.678;2023-11-21T04:37:03;8.60;91.00
3850;DHT22;1940;51.052;13.678;2023-11-21T04:39:31;8.60;91.10
3850;DHT22;1940;51.052;13.678;2023-11-21T04:41:57;8.60;91.10
3850;DHT22;1940;51.052;13.678;2023-11-21T04:44:22;8.50;91.20
3850;DHT22;1940;51.052;13.678;2023-11-21T04:46:48;8.50;91.20
3850;DHT22;1940;51.052;13.678;2023-11-21T04:49:14;8.50;91.30
3850;DHT22;1940;51.052;13.678;2023-11-21T04:51:39;8.50;91.10
3850;DHT22;1940;51.052;13.678;2023-11-21T04:54:05;8.60;91.20
3850;DHT22;1940;51.052;13.678;2023-11-21T04:56:31;8.60;91.20
3850;DHT22;1940;51.052;13.678;2023-11-21T04:58:56;8.60;91.40
3850;DHT22;1940;51.052;13.678;2023-11-21T05:01:22;8.60;91.40
3850;DHT22;1940;51.052;13.678;2023-11-21T05:03:48;8.60;91.50
3850;DHT22;1940;51.052;13.678;2023-11-21T05:06:14;8.70;91.40
3850;DHT22;1940;51.052;13.678;2023-11-21T05:08:40;8.70;91.20
3850;DHT22;1940;51.052;13.678;2023-11-21T05:11:06;8.80;91.10
3850;DHT22;1940;51.052;13.678;2023-11-21T05:13:34;8.80;90.90
3850;DHT22;1940;51.052;13.678;2023-11-21T05:15:59;8.90;90.90
3850;DHT22;1940;51.052;13.678;2023-11-21T05:18:25;8.90;90.70
3850;DHT22;1940;51.052;13.678;2023-11-21T05:20:55;8.90;90.60
3850;DHT22;1940;51.052;13.678;2023-11-21T05:23:21;8.90;90.70
3850;DHT22;1940;51.052;13.678;2023-11-21T05:25:46;8.80;90.60
3850;DHT22;1940;51.052;13.678;2023-11-21T05:28:12;8.90;90.50
3850;DHT22;1940;51.052;13.678;2023-11-21T05:30:38;8.90;90.50
3850;DHT22;1940;51.052;13.678;2023-11-21T05:33:06;8.90;90.50
3850;DHT22;1940;51.052;13.678;2023-11-21T05:35:32;8.90;90.50
3850;DHT22;1940;51.052;13.678;2023-11-21T05:37:57;8.90;90.40
3850;DHT22;1940;51.052;13.678;2023-11-21T05:40:23;8.90;90.40
3850;DHT22;1940;51.052;13.678;2023-11-21T05:42:49;8.90;90.40
3850;DHT22;1940;51.052;13.678;2023-11-21T05:45:17;8.90;90.30
3850;DHT22;1940;51.052;13.678;2023-11-21T05:47:45;8.90;90.30
3850;DHT22;1940;51.052;13.678;2023-11-21T05:50:12;8.90;90.20
3850;DHT22;1940;51.052;13.678;2023-11-21T05:52:40;9.00;90.20
3850;DHT22;1940;51.052;13.678;2023-11-21T05:55:06;9.00;90.10
3850;DHT22;1940;51.052;13.678;2023-11-21T05:57:35;9.00;89.90
3850;DHT22;1940;51.052;13.678;2023-11-21T06:00:03;8.90;89.90
3850;DHT22;1940;51.052;13.678;2023-11-21T06:02:35;8.90;90.00
3850;DHT22;1940;51.052;13.678;2023-11-21T06:05:01;8.80;90.10
3850;DHT22;1940;51.052;13.678;2023-11-21T06:07:26;8.80;90.10
3850;DHT22;1940;51.052;13.678;2023-11-21T06:09:52;8.70;90.20
3850;DHT22;1940;51.052;13.678;2023-11-21T06:12:17;8.70;90.40
3850;DHT22;1940;51.052;13.678;2023-11-21T06:14:43;8.70;90.40
3850;DHT22;1940;51.052;13.678;2023-11-21T06:17:08;8.70;90.40
3850;DHT22;1940;51.052;13.678;2023-11-21T06:19:35;8.70;90.60
3850;DHT22;1940;51.052;13.678;2023-11-21T06:22:00;8.70;90.70
3850;DHT22;1940;51.052;13.678;2023-11-21T06:24:27;8.70;90.70
3850;DHT22;1940;51.052;13.678;2023-11-21T06:26:53;8.80;90.60
3850;DHT22;1940;51.052;13.678;2023-11-21T06:29:18;8.70;90.50
3850;DHT22;1940;51.052;13.678;2023-11-21T06:31:44;8.70;90.70
3850;DHT22;1940;51.052;13.678;2023-11-21T06:34:11;8.80;90.80
3850;DHT22;1940;51.052;13.678;2023-11-21T06:36:37;8.80;90.80
3850;DHT22;1940;51.052;13.678;2023-11-21T06:39:03;8.80;90.80
3850;DHT22;1940;51.052;13.678;2023-11-21T06:41:34;8.80;90.70
3850;DHT22;1940;51.052;13.678;2023-11-21T06:43:59;8.80;90.60
3850;DHT22;1940;51.052;13.678;2023-11-21T06:46:25;8.80;90.70
3850;DHT22;1940;51.052;13.678;2023-11-21T06:48:50;8.80;90.80
3850;DHT22;1940;51.052;13.678;2023-11-21T06:51:16;8.80;90.80
3850;DHT22;1940;51.052;13.678;2023-11-21T06:53:42;8.70;90.80
3850;DHT22;1940;51.052;13.678;2023-11-21T06:56:17;8.70;91.10
3850;DHT22;1940;51.052;13.678;2023-11-21T06:58:45;8.70;91.20
3850;DHT22;1940;51.052;13.678;2023-11-21T07:01:12;8.60;91.60
3850;DHT22;1940;51.052;13.678;2023-11-21T07:03:38;8.60;92.00
3850;DHT22;1940;51.052;13.678;2023-11-21T07:06:04;8.60;91.90
3850;DHT22;1940;51.052;13.678;2023-11-21T07:08:29;8.70;92.50
3850;DHT22;1940;51.052;13.678;2023-11-21T07:10:55;8.60;92.50
3850;DHT22;1940;51.052;13.678;2023-11-21T07:13:20;8.60;92.50
3850;DHT22;1940;51.052;13.678;2023-11-21T07:15:47;8.70;92.50
3850;DHT22;1940;51.052;13.678;2023-11-21T07:18:13;8.80;92.40
3850;DHT22;1940;51.052;13.678;2023-11-21T07:20:39;8.80;92.30
3850;DHT22;1940;51.052;13.678;2023-11-21T07:23:04;8.90;92.40
3850;DHT22;1940;51.052;13.678;2023-11-21T07:25:31;8.90;92.20
3850;DHT22;1940;51.052;13.678;2023-11-21T07:27:57;9.00;92.10
3850;DHT22;1940;51.052;13.678;2023-11-21T07:30:22;8.90;91.90
3850;DHT22;1940;51.052;13.678;2023-11-21T07:32:48;9.00;91.90
3850;DHT22;1940;51.052;13.678;2023-11-21T07:35:14;9.10;91.90
3850;DHT22;1940;51.052;13.678;2023-11-21T07:37:40;9.10;91.70
3850;DHT22;1940;51.052;13.678;2023-11-21T07:40:06;9.00;91.90
3850;DHT22;1940;51.052;13.678;2023-11-21T07:42:34;9.00;92.00
3850;DHT22;1940;51.052;13.678;2023-11-21T07:44:59;9.10;92.00
3850;DHT22;1940;51.052;13.678;2023-11-21T07:47:25;9.10;91.80
3850;DHT22;1940;51.052;13.678;2023-11-21T07:49:53;9.20;91.80
3850;DHT22;1940;51.052;13.678;2023-11-21T07:52:18;9.20;91.10
3850;DHT22;1940;51.052;13.678;2023-11-21T07:54:46;9.20;91.00
3850;DHT22;1940;51.052;13.678;2023-11-21T07:57:12;9.30;90.90
3850;DHT22;1940;51.052;13.678;2023-11-21T07:59:41;9.30;90.60
3850;DHT22;1940;51.052;13.678;2023-11-21T08:02:07;9.30;90.80
3850;DHT22;1940;51.052;13.678;2023-11-21T08:04:33;9.30;90.50
3850;DHT22;1940;51.052;13.678;2023-11-21T08:06:59;9.30;90.90
3850;DHT22;1940;51.052;13.678;2023-11-21T08:09:24;9.30;90.80
3850;DHT22;1940;51.052;13.678;2023-11-21T08:11:51;9.30;90.90
3850;DHT22;1940;51.052;13.678;2023-11-21T08:14:18;9.20;91.30
3850;DHT22;1940;51.052;13.678;2023-11-21T08:16:44;9.10;91.70
3850;DHT22;1940;51.052;13.678;2023-11-21T08:19:10;9.10;92.10
3850;DHT22;1940;51.052;13.678;2023-11-21T08:21:36;9.10;92.10
3850;DHT22;1940;51.052;13.678;2023-11-21T08:24:05;9.00;92.70
3850;DHT22;1940;51.052;13.678;2023-11-21T08:26:30;9.00;93.20
3850;DHT22;1940;51.052;13.678;2023-11-21T08:28:56;9.00;93.20
3850;DHT22;1940;51.052;13.678;2023-11-21T08:31:25;9.00;93.60
3850;DHT22;1940;51.052;13.678;2023-11-21T08:33:51;9.00;93.90
3850;DHT22;1940;51.052;13.678;2023-11-21T08:36:17;9.00;93.90
3850;DHT22;1940;51.052;13.678;2023-11-21T08:38:42;9.10;93.90
3850;DHT22;1940;51.052;13.678;2023-11-21T08:41:08;9.20;93.60
3850;DHT22;1940;51.052;13.678;2023-11-21T08:43:37;9.30;93.40
3850;DHT22;1940;51.052;13.678;2023-11-21T08:46:06;9.20;93.50
3850;DHT22;1940;51.052;13.678;2023-11-21T08:48:32;9.20;93.20
3850;DHT22;1940;51.052;13.678;2023-11-21T08:50:57;9.20;93.60
3850;DHT22;1940;51.052;13.678;2023-11-21T08:53:23;9.30;93.40
3850;DHT22;1940;51.052;13.678;2023-11-21T08:55:48;9.30;93.40
3850;DHT22;1940;51.052;13.678;2023-11-21T08:58:15;9.30;93.50
3850;DHT22;1940;51.052;13.678;2023-11-21T09:00:41;9.30;93.50
3850;DHT22;1940;51.052;13.678;2023-11-21T09:03:06;9.20;93.80
3850;DHT22;1940;51.052;13.678;2023-11-21T09:05:37;9.10;94.00
3850;DHT22;1940;51.052;13.678;2023-11-21T09:08:02;9.10;94.10
3850;DHT22;1940;51.052;13.678;2023-11-21T09:10:28;8.90;94.50
3850;DHT22;1940;51.052;13.678;2023-11-21T09:12:53;8.90;94.50
3850;DHT22;1940;51.052;13.678;2023-11-21T09:15:19;8.80;95.00
3850;DHT22;1940;51.052;13.678;2023-11-21T09:17:45;8.70;95.20
3850;DHT22;1940;51.052;13.678;2023-11-21T09:20:11;8.70;95.20
3850;DHT22;1940;51.052;13.678;2023-11-21T09:22:37;8.60;95.20
3850;DHT22;1940;51.052;13.678;2023-11-21T09:25:02;8.60;95.20
3850;DHT22;1940;51.052;13.678;2023-11-21T09:27:31;8.70;95.20
3850;DHT22;1940;51.052;13.678;2023-11-21T09:29:56;8.60;95.20
3850;DHT22;1940;51.052;13.678;2023-11-21T09:32:23;8.60;95.20
3850;DHT22;1940;51.052;13.678;2023-11-21T09:34:49;8.60;95.20
3850;DHT22;1940;51.052;13.678;2023-11-21T09:37:16;8.60;95.20
3850;DHT22;1940;51.052;13.678;2023-11-21T09:39:41;8.50;95.20
3850;DHT22;1940;51.052;13.678;2023-11-21T09:42:19;8.50;95.20
3850;DHT22;1940;51.052;13.678;2023-11-21T09:45:03;8.50;95.20
3850;DHT22;1940;51.052;13.678;2023-11-21T09:47:32;8.40;95.20
3850;DHT22;1940;51.052;13.678;2023-11-21T09:50:01;8.30;95.20
3850;DHT22;1940;51.052;13.678;2023-11-21T09:52:28;8.10;95.20
3850;DHT22;1940;51.052;13.678;2023-11-21T09:54:55;7.80;95.20
3850;DHT22;1940;51.052;13.678;2023-11-21T09:57:24;7.70;95.20
3850;DHT22;1940;51.052;13.678;2023-11-21T09:59:51;7.60;95.20
3850;DHT22;1940;51.052;13.678;2023-11-21T10:02:22;7.40;95.20
3850;DHT22;1940;51.052;13.678;2023-11-21T10:04:47;7.40;95.20
3850;DHT22;1940;51.052;13.678;2023-11-21T10:07:13;7.20;95.20
3850;DHT22;1940;51.052;13.678;2023-11-21T10:09:41;7.10;95.20
3850;DHT22;1940;51.052;13.678;2023-11-21T10:12:08;7.10;95.20
3850;DHT22;1940;51.052;13.678;2023-11-21T10:14:37;7.00;95.20
3850;DHT22;1940;51.052;13.678;2023-11-21T10:17:07;6.90;95.20
3850;DHT22;1940;51.052;13.678;2023-11-21T10:19:35;6.90;95.20
3850;DHT22;1940;51.052;13.678;2023-11-21T10:22:01;6.70;95.20
3850;DHT22;1940;51.052;13.678;2023-11-21T10:24:27;6.60;95.20
3850;DHT22;1940;51.052;13.678;2023-11-21T10:26:52;6.50;95.20
3850;DHT22;1940;51.052;13.678;2023-11-21T10:29:19;6.50;95.20
3850;DHT22;1940;51.052;13.678;2023-11-21T10:31:49;6.50;95.20
3850;DHT22;1940;51.052;13.678;2023-11-21T10:34:16;6.50;95.20
3850;DHT22;1940;51.052;13.678;2023-11-21T10:36:42;6.40;95.20
3850;DHT22;1940;51.052;13.678;2023-11-21T10:39:08;6.40;95.20
3850;DHT22;1940;51.052;13.678;2023-11-21T10:41:35;6.30;95.20
3850;DHT22;1940;51.052;13.678;2023-11-21T10:44:01;6.30;95.20
3850;DHT22;1940;51.052;13.678;2023-11-21T10:46:29;6.40;95.20
3850;DHT22;1940;51.052;13.678;2023-11-21T10:48:56;6.30;95.20
3850;DHT22;1940;51.052;13.678;2023-11-21T10:51:22;6.30;95.20
3850;DHT22;1940;51.052;13.678;2023-11-21T10:53:51;6.30;95.20
3850;DHT22;1940;51.052;13.678;2023-11-21T10:56:18;6.20;95.20
3850;DHT22;1940;51.052;13.678;2023-11-21T10:58:45;6.30;95.20
3850;DHT22;1940;51.052;13.678;2023-11-21T11:01:11;6.20;95.20
3850;DHT22;1940;51.052;13.678;2023-11-21T11:03:40;6.10;95.20
3850;DHT22;1940;51.052;13.678;2023-11-21T11:06:07;6.20;95.20
3850;DHT22;1940;51.052;13.678;2023-11-21T11:08:37;6.30;95.20
3850;DHT22;1940;51.052;13.678;2023-11-21T11:11:04;6.10;95.20
3850;DHT22;1940;51.052;13.678;2023-11-21T11:13:30;6.10;95.20
3850;DHT22;1940;51.052;13.678;2023-11-21T11:15:59;6.20;95.20
3850;DHT22;1940;51.052;13.678;2023-11-21T11:18:25;6.20;95.20
3850;DHT22;1940;51.052;13.678;2023-11-21T11:20:52;6.10;95.20
3850;DHT22;1940;51.052;13.678;2023-11-21T11:26:55;6.20;95.20
3850;DHT22;1940;51.052;13.678;2023-11-21T11:29:31;6.10;95.20
3850;DHT22;1940;51.052;13.678;2023-11-21T11:34:36;6.10;95.20
3850;DHT22;1940;51.052;13.678;2023-11-21T11:37:07;6.10;95.20
3850;DHT22;1940;51.052;13.678;2023-11-21T11:39:40;6.00;95.20
3850;DHT22;1940;51.052;13.678;2023-11-21T11:42:18;6.00;95.20
3850;DHT22;1940;51.052;13.678;2023-11-21T11:47:24;6.00;95.10
3850;DHT22;1940;51.052;13.678;2023-11-21T11:50:07;6.00;94.80
3850;DHT22;1940;51.052;13.678;2023-11-21T11:52:37;5.90;94.40
3850;DHT22;1940;51.052;13.678;2023-11-21T11:55:06;5.90;94.90
3850;DHT22;1940;51.052;13.678;2023-11-21T11:57:34;6.00;94.90
3850;DHT22;1940;51.052;13.678;2023-11-21T12:00:19;6.00;94.10
3850;DHT22;1940;51.052;13.678;2023-11-21T12:02:48;5.90;94.50
3850;DHT22;1940;51.052;13.678;2023-11-21T12:05:15;5.80;94.30
3850;DHT22;1940;51.052;13.678;2023-11-21T12:07:52;5.90;94.40
3850;DHT22;1940;51.052;13.678;2023-11-21T12:10:25;5.80;94.30
3850;DHT22;1940;51.052;13.678;2023-11-21T12:12:51;5.80;94.50
3850;DHT22;1940;51.052;13.678;2023-11-21T12:15:21;5.80;94.80
3850;DHT22;1940;51.052;13.678;2023-11-21T12:17:47;5.70;94.90
3850;DHT22;1940;51.052;13.678;2023-11-21T12:20:16;5.70;95.10
3850;DHT22;1940;51.052;13.678;2023-11-21T12:22:44;5.70;94.90
3850;DHT22;1940;51.052;13.678;2023-11-21T12:25:13;5.70;94.90
3850;DHT22;1940;51.052;13.678;2023-11-21T12:27:42;5.60;94.70
3850;DHT22;1940;51.052;13.678;2023-11-21T12:30:09;5.60;95.20
3850;DHT22;1940;51.052;13.678;2023-11-21T12:32:39;5.70;95.20
3850;DHT22;1940;51.052;13.678;2023-11-21T12:35:05;5.70;95.10
3850;DHT22;1940;51.052;13.678;2023-11-21T12:37:32;5.80;95.20
3850;DHT22;1940;51.052;13.678;2023-11-21T12:39:57;5.80;95.20
3850;DHT22;1940;51.052;13.678;2023-11-21T12:42:23;5.70;95.20
3850;DHT22;1940;51.052;13.678;2023-11-21T12:50:27;6.00;95.20
3850;DHT22;1940;51.052;13.678;2023-11-21T12:53:02;5.90;95.20
3850;DHT22;1940;51.052;13.678;2023-11-21T12:55:31;6.00;95.20
3850;DHT22;1940;51.052;13.678;2023-11-21T12:58:00;6.00;95.20
3850;DHT22;1940;51.052;13.678;2023-11-21T13:00:33;6.00;95.20
3850;DHT22;1940;51.052;13.678;2023-11-21T13:03:03;6.10;95.20
3850;DHT22;1940;51.052;13.678;2023-11-21T13:05:33;5.90;95.20
3850;DHT22;1940;51.052;13.678;2023-11-21T13:08:01;5.90;95.20
3850;DHT22;1940;51.052;13.678;2023-11-21T13:10:30;5.90;95.20
3850;DHT22;1940;51.052;13.678;2023-11-21T13:13:00;5.90;95.20
3850;DHT22;1940;51.052;13.678;2023-11-21T13:15:27;5.90;95.20
3850;DHT22;1940;51.052;13.678;2023-11-21T13:17:53;5.90;95.20
3850;DHT22;1940;51.052;13.678;2023-11-21T13:20:19;5.70;95.20
3850;DHT22;1940;51.052;13.678;2023-11-21T13:23:09;5.60;95.20
3850;DHT22;1940;51.052;13.678;2023-11-21T13:25:39;5.40;95.20
3850;DHT22;1940;51.052;13.678;2023-11-21T13:28:08;5.30;95.20
3850;DHT22;1940;51.052;13.678;2023-11-21T13:30:37;5.20;95.20
3850;DHT22;1940;51.052;13.678;2023-11-21T13:33:06;5.10;95.20
3850;DHT22;1940;51.052;13.678;2023-11-21T13:35:34;5.10;95.20
3850;DHT22;1940;51.052;13.678;2023-11-21T13:40:33;5.10;95.20
3850;DHT22;1940;51.052;13.678;2023-11-21T13:43:05;5.20;95.20
3850;DHT22;1940;51.052;13.678;2023-11-21T13:45:30;5.10;95.20
3850;DHT22;1940;51.052;13.678;2023-11-21T13:47:56;5.00;95.20
3850;DHT22;1940;51.052;13.678;2023-11-21T13:50:25;5.10;95.20
3850;DHT22;1940;51.052;13.678;2023-11-21T13:53:00;5.00;95.20
3850;DHT22;1940;51.052;13.678;2023-11-21T13:55:48;5.00;95.20
3850;DHT22;1940;51.052;13.678;2023-11-21T13:58:15;5.00;95.20
3850;DHT22;1940;51.052;13.678;2023-11-21T14:00:47;5.00;95.20
3850;DHT22;1940;51.052;13.678;2023-11-21T14:03:22;5.00;95.20
3850;DHT22;1940;51.052;13.678;2023-11-21T14:05:49;5.00;95.20
3850;DHT22;1940;51.052;13.678;2023-11-21T14:08:19;5.00;95.20
3850;DHT22;1940;51.052;13.678;2023-11-21T14:10:50;5.00;95.20
3850;DHT22;1940;51.052;13.678;2023-11-21T14:13:26;4.90;95.20
3850;DHT22;1940;51.052;13.678;2023-11-21T14:15:52;4.80;95.20
3850;DHT22;1940;51.052;13.678;2023-11-21T14:18:24;4.80;95.20
3850;DHT22;1940;51.052;13.678;2023-11-21T14:20:59;4.80;95.20
3850;DHT22;1940;51.052;13.678;2023-11-21T14:23:25;4.70;95.20
3850;DHT22;1940;51.052;13.678;2023-11-21T14:25:50;4.60;95.20
3850;DHT22;1940;51.052;13.678;2023-11-21T14:28:17;4.60;95.20
3850;DHT22;1940;51.052;13.678;2023-11-21T14:30:45;4.50;95.20
3850;DHT22;1940;51.052;13.678;2023-11-21T14:33:11;4.60;95.20
3850;DHT22;1940;51.052;13.678;2023-11-21T14:35:37;4.40;95.20
3850;DHT22;1940;51.052;13.678;2023-11-21T14:38:03;4.30;95.20
3850;DHT22;1940;51.052;13.678;2023-11-21T14:40:31;4.20;95.20
3850;DHT22;1940;51.052;13.678;2023-11-21T14:43:00;4.10;95.20
3850;DHT22;1940;51.052;13.678;2023-11-21T14:45:25;4.10;95.20
3850;DHT22;1940;51.052;13.678;2023-11-21T14:47:52;4.20;95.20
3850;DHT22;1940;51.052;13.678;2023-11-21T14:50:36;4.20;95.20
3850;DHT22;1940;51.052;13.678;2023-11-21T14:53:04;4.30;95.20
3850;DHT22;1940;51.052;13.678;2023-11-21T14:55:35;4.40;95.20
3850;DHT22;1940;51.052;13.678;2023-11-21T14:58:12;4.40;95.20
3850;DHT22;1940;51.052;13.678;2023-11-21T15:00:41;4.30;95.20
3850;DHT22;1940;51.052;13.678;2023-11-21T15:03:10;4.20;95.20
3850;DHT22;1940;51.052;13.678;2023-11-21T15:05:46;4.30;95.20
3850;DHT22;1940;51.052;13.678;2023-11-21T15:08:14;4.20;95.20
3850;DHT22;1940;51.052;13.678;2023-11-21T15:10:50;4.20;95.20
3850;DHT22;1940;51.052;13.678;2023-11-21T15:13:19;4.20;95.20
3850;DHT22;1940;51.052;13.678;2023-11-21T15:15:46;4.20;95.20
3850;DHT22;1940;51.052;13.678;2023-11-21T15:18:12;4.10;95.20
3850;DHT22;1940;51.052;13.678;2023-11-21T15:20:41;4.10;95.20
3850;DHT22;1940;51.052;13.678;2023-11-21T15:23:07;4.10;95.20
3850;DHT22;1940;51.052;13.678;2023-11-21T15:25:33;4.10;95.20
3850;DHT22;1940;51.052;13.678;2023-11-21T15:28:00;4.20;95.20
3850;DHT22;1940;51.052;13.678;2023-11-21T15:30:25;4.20;95.20
3850;DHT22;1940;51.052;13.678;2023-11-21T15:32:52;4.20;95.20
3850;DHT22;1940;51.052;13.678;2023-11-21T15:35:19;4.20;95.20
3850;DHT22;1940;51.052;13.678;2023-11-21T15:37:45;4.20;95.20
3850;DHT22;1940;51.052;13.678;2023-11-21T15:40:11;4.10;95.20
3850;DHT22;1940;51.052;13.678;2023-11-21T15:42:40;4.10;95.20
3850;DHT22;1940;51.052;13.678;2023-11-21T15:45:05;4.20;95.20
3850;DHT22;1940;51.052;13.678;2023-11-21T15:47:36;4.30;95.20
3850;DHT22;1940;51.052;13.678;2023-11-21T15:50:02;4.20;95.20
3850;DHT22;1940;51.052;13.678;2023-11-21T15:52:29;4.20;95.20
3850;DHT22;1940;51.052;13.678;2023-11-21T15:54:55;4.10;95.20
3850;DHT22;1940;51.052;13.678;2023-11-21T15:57:20;4.00;95.20
3850;DHT22;1940;51.052;13.678;2023-11-21T15:59:50;4.00;95.20
3850;DHT22;1940;51.052;13.678;2023-11-21T16:02:15;4.00;95.20
3850;DHT22;1940;51.052;13.678;2023-11-21T16:04:41;4.00;95.20
3850;DHT22;1940;51.052;13.678;2023-11-21T16:07:08;4.10;95.20
3850;DHT22;1940;51.052;13.678;2023-11-21T16:09:35;4.00;95.20
3850;DHT22;1940;51.052;13.678;2023-11-21T16:12:04;4.00;95.20
3850;DHT22;1940;51.052;13.678;2023-11-21T16:14:32;4.00;95.20
3850;DHT22;1940;51.052;13.678;2023-11-21T16:17:15;4.00;95.20
3850;DHT22;1940;51.052;13.678;2023-11-21T16:19:42;3.90;95.20
3850;DHT22;1940;51.052;13.678;2023-11-21T16:22:08;4.00;95.20